Sharm El Sheikhintl, Egypt

2:52 PM EET on August 20, 2014 (GMT +0200)
Sharm El Sheikh International | Change Station
CLOSE
Current Station
Airport
Location: Sharm El Sheikh,
Elevation: 164 ft
Nearby Weather Stations

Elev 164 ft 27.98 °N, 34.39 °E | Updated 52 minutes ago

Clear
Clear
102 °F
Feels Like 108 °F
N
13
Wind Variable Wind from North

Today
High -- | Low -- °F
--% Chance of Precip.
Yesterday
High -- | Low -- °F
Precip. -- in
5:14 AM 6:16 PM
Waning Crescent, 22% visible
Pressure 29.77 in
Visibility -9999.0 miles
Clouds
Heat Index 108 °F
Dew Point 68 °F
Humidity 33%
Rainfall 0.00 in
Snow Depth Not available.
UV Not available.
Pollen Not available.
Air Quality Not available.
Flu Activity Not available.
METAR HESH 201200Z 01011KT CAVOK 39/20 Q1008 NOSIG

More Conditions Fewer Conditions

Pressure 29.77 in
Visibility -9999.0 miles
Clouds
Heat Index 108 °F
Dew Point 68 °F
Humidity 33%
Rainfall 0.00 in
Snow Depth Not available.
UV Not available.
Pollen Not available.
Air Quality Not available.
Flu Activity Not available.
METAR HESH 201200Z 01011KT CAVOK 39/20 Q1008 NOSIG

More Conditions Fewer Conditions

10-Day Weather Forecast

Almanac

Astronomy

Aug. 20, 2014 Rise Set
Actual Time 5:14 AM EET 6:16 PM EET
Civil Twilight 4:50 AM EET 6:40 PM EET
Nautical Twilight 4:21 AM EET 7:09 PM EET
Astronomical Twilight 3:52 AM EET 7:38 PM EET
Moon 12:47 AM EET 2:36 PM EET
Length of Visible Light 13h 50m
Length of Day
13h 01m
Tomorrow will be 1m 30s shorter.
Waning Crescent, 22% of the Moon is Illuminated
Today
Waning Crescent
Aug 25
New
Sep 2
First Quarter
Sep 8
Full
Sep 15
Last Quarter

Yesterday's Extremes

Country Highs Country Lows

Community

WunderPhotos

Upload Photos

1,745,618 photos uploaded!

Nearby

Snow Depth

Not available.

Earthquake Activity

City Distance Mag. Time & Date
No recent earthquake activity has been reported nearby.
Minimum magnitude displayed is 2.5.

Coastal Water Temperatures

Place Temperature
No Stations Reporting

Nearby Weather Stations